• Join FlightAware (Why Join?)
  • Login
  • US Flag 
10:15PM EST


 

Airport Tracker/Info


-or-


 

Live Flight TrackerFlight Track Log ✈ TAM3448 ✈ 04-May-2013 ✈ SBBR / BSB - SBBE / BEL

Flight Track Log - Related Links

Times and Time Zones

All times are in EDT time to prevent confusion due to time zone crossing. See the TAM3448 flight status page for this flight to view local times or setup timezone preferences in your user account.

Time Position Orientation Groundspeed Altitude Reporting Facility
EDT Latitude Longitude Course Direction KTS MPH feet Rate Location/Type
07:27PM -15.8790 -47.9090 102° East 94 108 3,700  Level FlightAware
07:28PM -15.8760 -47.8690 86° East 176 203 4,500 1,500 Climbing FlightAware
07:28PM -15.8810 -47.8500 105° East 194 223 5,500 1,980 Climbing FlightAware
07:29PM -15.9060 -47.8230 134° Southeast 197 227 6,500 1,440 Climbing FlightAware
07:29PM -15.9080 -47.8090 98° East 209 241 6,700 720 Climbing FlightAware
07:30PM -15.8940 -47.7880 55° Northeast 223 257 7,000 720 Climbing FlightAware
07:30PM -15.8610 -47.7830 North 223 257 7,300 1,020 Climbing FlightAware
07:30PM -15.8410 -47.7890 344° North 291 335 7,800 2,280 Climbing FlightAware
07:31PM -15.7740 -47.8190 337° Northwest 289 333 10,200 1,980 Climbing FlightAware
07:32PM -15.7190 -47.8430 337° Northwest 315 362 11,000 1,080 Climbing FlightAware
07:33PM -15.6720 -47.8640 337° Northwest 351 404 11,500 1,620 Climbing FlightAware
07:33PM -15.5980 -47.8950 338° Northwest 353 406 13,200 2,460 Climbing FlightAware
07:34PM -15.5350 -47.9220 338° Northwest 327 376 15,400 1,980 Climbing FlightAware
07:35PM -15.4830 -47.9450 337° Northwest 349 402 15,900 720 Climbing FlightAware
07:36PM -15.4060 -47.9770 338° Northwest 378 435 16,500 960 Climbing FlightAware
07:36PM -15.3340 -48.0080 337° Northwest 391 450 17,400 1,380 Climbing FlightAware
07:37PM -15.2600 -48.0390 338° Northwest 396 456 18,500 1,380 Climbing FlightAware
07:38PM -15.1920 -48.0640 340° North 400 460 19,400 1,560 Climbing FlightAware
07:38PM -15.1160 -48.0680 357° North 396 456 20,600 1,380 Climbing FlightAware
07:39PM -15.0340 -48.0740 356° North 406 467 21,400 1,260 Climbing FlightAware
07:40PM -14.9560 -48.0780 357° North 407 468 22,400 1,260 Climbing FlightAware
07:40PM -14.8790 -48.0830 356° North 413 475 23,100 960 Climbing FlightAware
07:41PM -14.7920 -48.0890 356° North 421 484 23,800 900 Climbing FlightAware
07:42PM -14.7260 -48.0920 357° North 426 490 24,400 420 Climbing FlightAware
07:43PM -14.6460 -48.0980 356° North 426 490 24,400  Level FlightAware
07:43PM -14.5790 -48.1030 356° North 426 490 24,400  Level FlightAware
07:44PM -14.5120 -48.1080 356° North 426 490 24,400  Level FlightAware
07:45PM -14.4460 -48.1130 356° North 426 490 24,400  Level FlightAware
07:45PM -14.3790 -48.1180 356° North 426 490 24,400 720 Level FlightAware
07:48PM -14.1491 -48.1246 358° North  Level Estimated
07:49PM -14.0491 -48.1274 358° North  Level Estimated
07:50PM -13.9491 -48.1303 358° North  Level Estimated
07:51PM -13.8492 -48.1332 358° North  Level Estimated
07:52PM -13.7492 -48.1360 358° North  Level Estimated
07:53PM -13.6492 -48.1389 358° North  Level Estimated
07:54PM -13.5492 -48.1417 358° North  Level Estimated
07:55PM -13.4493 -48.1446 358° North  Level Estimated
07:56PM -13.3493 -48.1474 358° North  Level Estimated
07:57PM -13.2493 -48.1502 358° North  Level Estimated
07:58PM -13.1494 -48.1531 358° North  Level Estimated
07:59PM -13.0494 -48.1559 358° North  Level Estimated
08:00PM -12.9494 -48.1588 358° North  Level Estimated
08:01PM -12.8495 -48.1616 358° North  Level Estimated
08:01PM -12.3240 -48.2380 358° North 456 525 36,000  Level FlightAware
08:01PM -12.2320 -48.2440 356° North 456 525 36,000  Level FlightAware
08:02PM -12.1550 -48.2480 357° North 455 524 36,000  Level FlightAware
08:03PM -11.9930 -48.2570 357° North 455 524 36,000  Level FlightAware
08:04PM -11.8860 -48.2640 356° North 457 526 36,000  Level FlightAware
08:05PM -11.7900 -48.2700 356° North 458 527 36,000  Level FlightAware
08:06PM -11.6710 -48.2770 357° North 459 528 36,000  Level FlightAware
08:06PM -11.5900 -48.2810 357° North 460 529 36,000  Level FlightAware
08:07PM -11.4850 -48.2880 356° North 459 528 36,000  Level FlightAware
08:08PM -11.3800 -48.2940 357° North 458 527 36,000  Level FlightAware
08:09PM -11.2770 -48.3000 357° North 457 526 36,000  Level FlightAware
08:10PM -11.1610 -48.3070 357° North 456 525 36,000  Level FlightAware
08:10PM -11.0730 -48.3120 357° North 456 525 36,000  Level FlightAware
08:11PM -10.9830 -48.3170 357° North 455 524 36,000  Level FlightAware
08:12PM -10.9130 -48.3220 356° North 456 525 36,000  Level FlightAware
08:12PM -10.8160 -48.3270 357° North 456 525 36,000  Level FlightAware
08:13PM -10.7920 -48.3290 355° North 457 526 36,000  Level FlightAware
08:15PM -10.7400 -48.3320 357° North 457 526 36,000  Level FlightAware
08:16PM -10.4400 -48.3500 357° North 458 527 36,000  Level FlightAware
08:16PM -10.3680 -48.3560 355° North 458 527 36,000  Level FlightAware
08:17PM -10.2960 -48.3610 356° North 458 527 36,000  Level FlightAware
08:18PM -10.2240 -48.3660 356° North 458 527 36,000  Level FlightAware
08:18PM -10.1530 -48.3710 356° North 458 527 36,000  Level FlightAware
08:19PM -10.0810 -48.3760 356° North 458 527 36,000  Level FlightAware
08:20PM -9.9910 -48.3820 356° North 458 527 36,000  Level FlightAware
08:20PM -10.5100 -48.3450 176° South 36,000  Level FlightAware
08:23PM -10.2633 -48.3486 359° North  Level Estimated
08:24PM -10.1633 -48.3501 359° North  Level Estimated
08:25PM -10.0633 -48.3516 359° North  Level Estimated
08:26PM -9.9633 -48.3530 359° North  Level Estimated
08:27PM -9.8633 -48.3545 359° North  Level Estimated
08:28PM -9.7633 -48.3559 359° North  Level Estimated
08:28PM -8.8500 -48.3710 359° North 451 519 36,000  Level FlightAware
08:29PM -8.7110 -48.3740 359° North 452 520 36,000  Level FlightAware
08:30PM -8.6490 -48.3740 360° North 454 522 36,000  Level FlightAware
08:31PM -8.5650 -48.3760 359° North 454 522 36,000  Level FlightAware
08:31PM -8.4230 -48.3780 359° North 455 524 36,000  Level FlightAware
08:32PM -8.3430 -48.3790 359° North 455 524 36,000  Level FlightAware
08:33PM -8.2720 -48.3800 359° North 455 524 36,000  Level FlightAware
08:33PM -8.1630 -48.3820 359° North 456 525 36,000  Level FlightAware
08:34PM -8.0610 -48.3830 359° North 456 525 36,000  Level FlightAware
08:35PM -7.9900 -48.3850 358° North 456 525 36,000  Level FlightAware
08:35PM -7.9180 -48.3860 359° North 456 525 36,000  Level FlightAware
08:36PM -7.8460 -48.3870 359° North 456 525 36,000  Level FlightAware
08:37PM -7.7750 -48.3880 359° North 456 525 36,000  Level FlightAware
08:38PM -7.6850 -48.3900 359° North 456 525 36,000  Level FlightAware
08:38PM -7.6130 -48.3910 359° North 456 525 36,000  Level FlightAware
08:39PM -7.5410 -48.3930 358° North 456 525 36,000  Level FlightAware
08:40PM -7.4700 -48.3940 359° North 456 525 36,000  Level FlightAware
08:40PM -7.3980 -48.3950 359° North 456 525 36,000  Level FlightAware
08:41PM -7.3080 -48.3970 359° North 456 525 36,000  Level FlightAware
08:42PM -7.2370 -48.3980 359° North 456 525 36,000  Level FlightAware
08:42PM -7.1650 -48.3990 359° North 456 525 36,000  Level FlightAware
08:43PM -7.0930 -48.4000 359° North 456 525 36,000  Level FlightAware
08:46PM -6.8547 -48.4032 359° North  Level Estimated
08:47PM -6.7547 -48.4046 359° North  Level Estimated
08:48PM -6.6547 -48.4059 359° North  Level Estimated
08:49PM -6.5547 -48.4072 359° North  Level Estimated
08:50PM -6.4547 -48.4086 359° North  Level Estimated
08:51PM -6.3547 -48.4099 359° North  Level Estimated
08:52PM -6.2547 -48.4113 359° North  Level Estimated
08:53PM -6.1547 -48.4126 359° North  Level Estimated
08:54PM -6.0547 -48.4140 359° North  Level Estimated
08:55PM -5.9547 -48.4153 359° North  Level Estimated
08:56PM -5.8547 -48.4166 359° North  Level Estimated
08:57PM -5.7547 -48.4180 359° North  Level Estimated
08:58PM -5.6547 -48.4193 359° North  Level Estimated
08:59PM -5.5547 -48.4207 359° North  Level Estimated
09:00PM -5.4547 -48.4220 359° North  Level Estimated
09:01PM -5.3547 -48.4233 359° North  Level Estimated
09:02PM -5.2547 -48.4247 359° North  Level Estimated
09:03PM -5.1547 -48.4260 359° North  Level Estimated
09:04PM -5.0547 -48.4273 359° North  Level Estimated
09:05PM -4.9547 -48.4287 359° North  Level Estimated
09:06PM -4.8547 -48.4300 359° North  Level Estimated
09:07PM -4.7547 -48.4314 359° North  Level Estimated
09:08PM -4.6547 -48.4327 359° North  Level Estimated
09:09PM -4.5547 -48.4341 359° North  Level Estimated
09:10PM -4.4547 -48.4354 359° North  Level Estimated
09:11PM -4.3547 -48.4367 359° North  Level Estimated
09:12PM -4.2547 -48.4380 359° North  Level Estimated
09:13PM -4.1547 -48.4394 359° North  Level Estimated
09:14PM -4.0547 -48.4407 359° North  Level Estimated
09:15PM -3.9547 -48.4420 359° North  Level Estimated
09:16PM -3.8547 -48.4434 359° North  Level Estimated
09:17PM -3.7547 -48.4447 359° North  Level Estimated
09:18PM -3.6547 -48.4460 359° North  Level Estimated
09:19PM -3.5547 -48.4473 359° North  Level Estimated
09:20PM -3.4547 -48.4487 359° North  Level Estimated
09:21PM -3.3547 -48.4500 359° North  Level Estimated
09:22PM -3.2547 -48.4513 359° North  Level Estimated
09:23PM -3.1547 -48.4527 359° North  Level Estimated
09:24PM -3.0547 -48.4540 359° North  Level Estimated
09:25PM -2.9547 -48.4553 359° North  Level Estimated
09:26PM -2.8547 -48.4567 359° North  Level Estimated
09:27PM -2.7547 -48.4580 359° North  Level Estimated
09:28PM -2.6547 -48.4593 359° North  Level Estimated
09:29PM -2.5547 -48.4607 359° North  Level Estimated
09:30PM -2.4547 -48.4620 359° North  Level Estimated
09:31PM -2.3547 -48.4633 359° North  Level Estimated
09:32PM -2.2547 -48.4646 359° North  Level Estimated
09:33PM -2.1547 -48.4660 359° North  Level Estimated
09:34PM -2.0547 -48.4673 359° North  Level Estimated
09:35PM -1.9547 -48.4686 359° North  Level Estimated
09:36PM -1.8547 -48.4700 359° North  Level Estimated
09:37PM -1.7547 -48.4713 359° North  Level Estimated
09:38PM -1.6547 -48.4726 359° North  Level Estimated
09:39PM -1.5547 -48.4739 359° North  Level Estimated
09:40PM -1.4547 -48.4753 359° North  Level Estimated
09:41PM -1.3793 -48.4763 359° North  Level Estimated
09:42PM -1.3793 -48.4763 270° West  Level Estimated
09:43PM -1.3793 -48.4763 270° West  Level Estimated
09:44PM -1.3793 -48.4763 270° West  Level Estimated
09:45PM -1.3793 -48.4763 270° West  Level Estimated
09:46PM -1.3793 -48.4763 270° West  Level Estimated
09:47PM -1.3793 -48.4763 270° West  Level Estimated
09:48PM -1.3793 -48.4763 270° West  Level Estimated
09:49PM -1.3793 -48.4763 270° West  Level Estimated
09:50PM -1.3793 -48.4763 270° West  Level Estimated
09:51PM -1.3793 -48.4763 270° West  Level Estimated
09:52PM -1.3793 -48.4763 270° West  Level Estimated
09:53PM -1.3793 -48.4763 270° West  Level Estimated
09:54PM -1.3793 -48.4763 270° West  Level Estimated
09:55PM -1.3793 -48.4763 270° West  Level Estimated
09:56PM -1.3793 -48.4763 270° West  Level Estimated
09:57PM -1.3793 -48.4763 270° West  Level Estimated
09:58PM -1.3793 -48.4763 270° West  Level Estimated
09:59PM -1.3793 -48.4763 270° West  Level Estimated
10:00PM -1.3793 -48.4763 270° West  Level Estimated
10:01PM -1.3793 -48.4763 270° West  Level Estimated